sensor_id;sensor_type;location;lat;lon;timestamp;P1;durP1;ratioP1;P2;durP2;ratioP2
1533;SDS011;760;48.822;9.304;2022-10-16T04:07:49;1.27;;;1.27;;
1533;SDS011;760;48.822;9.304;2022-10-16T04:10:15;1.60;;;1.50;;
1533;SDS011;760;48.822;9.304;2022-10-16T04:12:41;1.40;;;1.30;;
1533;SDS011;760;48.822;9.304;2022-10-16T04:15:06;1.50;;;1.47;;
1533;SDS011;760;48.822;9.304;2022-10-16T04:17:32;1.00;;;1.00;;
1533;SDS011;760;48.822;9.304;2022-10-16T04:19:58;1.90;;;1.80;;
1533;SDS011;760;48.822;9.304;2022-10-16T04:22:24;1.37;;;1.27;;
1533;SDS011;760;48.822;9.304;2022-10-16T04:24:49;1.60;;;1.50;;
1533;SDS011;760;48.822;9.304;2022-10-16T04:27:15;1.33;;;1.33;;
1533;SDS011;760;48.822;9.304;2022-10-16T04:29:41;1.27;;;1.27;;
1533;SDS011;760;48.822;9.304;2022-10-16T04:32:07;1.60;;;1.50;;
1533;SDS011;760;48.822;9.304;2022-10-16T04:34:33;2.47;;;1.80;;
1533;SDS011;760;48.822;9.304;2022-10-16T04:36:59;1.77;;;1.67;;
1533;SDS011;760;48.822;9.304;2022-10-16T04:39:25;1.67;;;1.57;;
1533;SDS011;760;48.822;9.304;2022-10-16T04:41:50;1.40;;;1.37;;
1533;SDS011;760;48.822;9.304;2022-10-16T04:44:16;1.80;;;1.33;;
1533;SDS011;760;48.822;9.304;2022-10-16T04:46:42;1.37;;;1.37;;
1533;SDS011;760;48.822;9.304;2022-10-16T04:49:09;1.57;;;1.47;;
1533;SDS011;760;48.822;9.304;2022-10-16T04:51:34;1.53;;;1.43;;
1533;SDS011;760;48.822;9.304;2022-10-16T04:54:00;1.50;;;1.40;;
1533;SDS011;760;48.822;9.304;2022-10-16T04:56:25;1.53;;;1.43;;
1533;SDS011;760;48.822;9.304;2022-10-16T04:58:51;2.17;;;1.63;;
1533;SDS011;760;48.822;9.304;2022-10-16T05:01:16;1.90;;;1.80;;
1533;SDS011;760;48.822;9.304;2022-10-16T05:03:42;2.23;;;1.80;;
1533;SDS011;760;48.822;9.304;2022-10-16T05:06:08;1.20;;;1.20;;
1533;SDS011;760;48.822;9.304;2022-10-16T05:08:34;8.07;;;2.23;;
1533;SDS011;760;48.822;9.304;2022-10-16T05:10:59;2.07;;;1.90;;
1533;SDS011;760;48.822;9.304;2022-10-16T05:13:26;1.60;;;1.50;;
1533;SDS011;760;48.822;9.304;2022-10-16T05:15:52;1.80;;;1.70;;
1533;SDS011;760;48.822;9.304;2022-10-16T05:18:17;2.90;;;1.90;;
1533;SDS011;760;48.822;9.304;2022-10-16T05:20:43;1.57;;;1.47;;
1533;SDS011;760;48.822;9.304;2022-10-16T05:23:08;2.43;;;1.53;;
1533;SDS011;760;48.822;9.304;2022-10-16T05:25:37;1.90;;;1.70;;
1533;SDS011;760;48.822;9.304;2022-10-16T05:28:03;2.87;;;1.50;;
1533;SDS011;760;48.822;9.304;2022-10-16T05:30:29;2.10;;;1.87;;
1533;SDS011;760;48.822;9.304;2022-10-16T05:32:54;1.80;;;1.70;;
1533;SDS011;760;48.822;9.304;2022-10-16T05:35:20;2.93;;;1.70;;
1533;SDS011;760;48.822;9.304;2022-10-16T05:37:46;1.47;;;1.43;;
1533;SDS011;760;48.822;9.304;2022-10-16T05:40:12;2.10;;;1.90;;
1533;SDS011;760;48.822;9.304;2022-10-16T05:42:38;1.50;;;1.30;;
1533;SDS011;760;48.822;9.304;2022-10-16T05:45:11;2.00;;;1.67;;
1533;SDS011;760;48.822;9.304;2022-10-16T05:47:37;1.30;;;1.30;;
1533;SDS011;760;48.822;9.304;2022-10-16T05:50:03;2.10;;;1.60;;
1533;SDS011;760;48.822;9.304;2022-10-16T05:52:29;1.60;;;1.50;;
1533;SDS011;760;48.822;9.304;2022-10-16T05:54:54;1.30;;;1.30;;
1533;SDS011;760;48.822;9.304;2022-10-16T05:57:20;2.20;;;1.57;;
1533;SDS011;760;48.822;9.304;2022-10-16T05:59:46;1.60;;;1.50;;
1533;SDS011;760;48.822;9.304;2022-10-16T06:02:12;2.37;;;2.17;;
1533;SDS011;760;48.822;9.304;2022-10-16T06:04:38;2.23;;;2.10;;
1533;SDS011;760;48.822;9.304;2022-10-16T06:07:04;2.03;;;1.70;;
1533;SDS011;760;48.822;9.304;2022-10-16T06:09:29;2.10;;;1.90;;
1533;SDS011;760;48.822;9.304;2022-10-16T06:11:55;2.10;;;2.00;;
1533;SDS011;760;48.822;9.304;2022-10-16T06:14:21;1.73;;;1.63;;
1533;SDS011;760;48.822;9.304;2022-10-16T06:16:46;1.70;;;1.43;;
1533;SDS011;760;48.822;9.304;2022-10-16T06:19:12;1.90;;;1.80;;
1533;SDS011;760;48.822;9.304;2022-10-16T06:21:38;1.70;;;1.60;;
1533;SDS011;760;48.822;9.304;2022-10-16T06:24:03;3.23;;;1.80;;
1533;SDS011;760;48.822;9.304;2022-10-16T06:26:29;2.27;;;1.60;;
1533;SDS011;760;48.822;9.304;2022-10-16T06:28:56;2.57;;;1.73;;
1533;SDS011;760;48.822;9.304;2022-10-16T06:31:23;1.57;;;1.47;;
1533;SDS011;760;48.822;9.304;2022-10-16T06:33:55;1.90;;;1.80;;
1533;SDS011;760;48.822;9.304;2022-10-16T06:36:21;1.93;;;1.83;;
1533;SDS011;760;48.822;9.304;2022-10-16T06:38:48;1.40;;;1.30;;
1533;SDS011;760;48.822;9.304;2022-10-16T06:41:14;2.33;;;2.07;;
1533;SDS011;760;48.822;9.304;2022-10-16T06:43:42;2.17;;;1.97;;
1533;SDS011;760;48.822;9.304;2022-10-16T06:46:10;1.90;;;1.80;;
1533;SDS011;760;48.822;9.304;2022-10-16T06:48:37;1.80;;;1.70;;
1533;SDS011;760;48.822;9.304;2022-10-16T06:51:13;1.50;;;1.40;;
1533;SDS011;760;48.822;9.304;2022-10-16T06:53:41;1.87;;;1.77;;
1533;SDS011;760;48.822;9.304;2022-10-16T06:56:10;1.70;;;1.60;;
1533;SDS011;760;48.822;9.304;2022-10-16T06:58:55;1.90;;;1.80;;
1533;SDS011;760;48.822;9.304;2022-10-16T07:01:22;7.30;;;1.77;;
1533;SDS011;760;48.822;9.304;2022-10-16T07:03:49;2.40;;;2.17;;
1533;SDS011;760;48.822;9.304;2022-10-16T07:06:16;1.77;;;1.67;;
1533;SDS011;760;48.822;9.304;2022-10-16T07:08:44;5.67;;;1.70;;
1533;SDS011;760;48.822;9.304;2022-10-16T07:11:14;3.63;;;1.40;;
1533;SDS011;760;48.822;9.304;2022-10-16T07:13:42;1.50;;;1.40;;
1533;SDS011;760;48.822;9.304;2022-10-16T07:16:09;3.23;;;1.50;;
1533;SDS011;760;48.822;9.304;2022-10-16T07:18:36;1.83;;;1.73;;
1533;SDS011;760;48.822;9.304;2022-10-16T07:21:09;3.17;;;1.83;;
1533;SDS011;760;48.822;9.304;2022-10-16T07:23:36;1.30;;;1.30;;
1533;SDS011;760;48.822;9.304;2022-10-16T07:26:02;1.60;;;1.50;;
1533;SDS011;760;48.822;9.304;2022-10-16T07:28:29;5.70;;;3.03;;
1533;SDS011;760;48.822;9.304;2022-10-16T07:30:59;1.40;;;1.40;;
1533;SDS011;760;48.822;9.304;2022-10-16T07:33:26;1.83;;;1.67;;
1533;SDS011;760;48.822;9.304;2022-10-16T07:35:52;1.57;;;1.47;;
1533;SDS011;760;48.822;9.304;2022-10-16T07:38:18;1.43;;;1.33;;
1533;SDS011;760;48.822;9.304;2022-10-16T07:40:44;1.60;;;1.50;;
1533;SDS011;760;48.822;9.304;2022-10-16T07:43:10;1.53;;;1.40;;
1533;SDS011;760;48.822;9.304;2022-10-16T07:45:36;1.47;;;1.37;;
1533;SDS011;760;48.822;9.304;2022-10-16T07:48:02;1.50;;;1.40;;
1533;SDS011;760;48.822;9.304;2022-10-16T07:50:28;2.13;;;2.00;;
1533;SDS011;760;48.822;9.304;2022-10-16T07:52:53;1.90;;;1.80;;
1533;SDS011;760;48.822;9.304;2022-10-16T07:55:19;1.77;;;1.67;;
1533;SDS011;760;48.822;9.304;2022-10-16T07:57:44;1.83;;;1.57;;
1533;SDS011;760;48.822;9.304;2022-10-16T08:00:10;1.50;;;1.40;;
1533;SDS011;760;48.822;9.304;2022-10-16T08:02:39;1.93;;;1.70;;
1533;SDS011;760;48.822;9.304;2022-10-16T08:05:05;2.13;;;1.43;;
1533;SDS011;760;48.822;9.304;2022-10-16T08:07:31;1.53;;;1.43;;
1533;SDS011;760;48.822;9.304;2022-10-16T08:09:57;1.57;;;1.47;;
1533;SDS011;760;48.822;9.304;2022-10-16T08:12:23;1.90;;;1.60;;
1533;SDS011;760;48.822;9.304;2022-10-16T08:14:49;2.13;;;2.03;;
1533;SDS011;760;48.822;9.304;2022-10-16T08:17:15;1.67;;;1.57;;
1533;SDS011;760;48.822;9.304;2022-10-16T08:19:43;1.70;;;1.60;;
1533;SDS011;760;48.822;9.304;2022-10-16T08:22:10;1.93;;;1.53;;
1533;SDS011;760;48.822;9.304;2022-10-16T08:24:35;1.67;;;1.57;;
1533;SDS011;760;48.822;9.304;2022-10-16T08:27:02;1.93;;;1.30;;
1533;SDS011;760;48.822;9.304;2022-10-16T08:29:28;1.77;;;1.67;;
1533;SDS011;760;48.822;9.304;2022-10-16T08:31:53;5.60;;;1.33;;
1533;SDS011;760;48.822;9.304;2022-10-16T08:34:19;1.83;;;1.73;;
1533;SDS011;760;48.822;9.304;2022-10-16T08:36:45;3.03;;;1.43;;
1533;SDS011;760;48.822;9.304;2022-10-16T08:39:10;1.97;;;1.83;;
1533;SDS011;760;48.822;9.304;2022-10-16T08:47:23;1.43;;;1.33;;
1533;SDS011;760;48.822;9.304;2022-10-16T08:50:00;1.77;;;1.53;;
1533;SDS011;760;48.822;9.304;2022-10-16T08:52:33;1.97;;;1.47;;
1533;SDS011;760;48.822;9.304;2022-10-16T08:55:03;1.13;;;1.13;;
1533;SDS011;760;48.822;9.304;2022-10-16T08:57:29;2.47;;;2.20;;
1533;SDS011;760;48.822;9.304;2022-10-16T08:59:58;1.73;;;1.63;;
1533;SDS011;760;48.822;9.304;2022-10-16T09:02:35;1.10;;;1.00;;
1533;SDS011;760;48.822;9.304;2022-10-16T09:16:11;1.53;;;1.43;;
1533;SDS011;760;48.822;9.304;2022-10-16T09:18:54;1.13;;;1.10;;
1533;SDS011;760;48.822;9.304;2022-10-16T09:21:29;1.10;;;1.10;;
1533;SDS011;760;48.822;9.304;2022-10-16T09:24:09;2.30;;;1.00;;
1533;SDS011;760;48.822;9.304;2022-10-16T09:26:39;5.70;;;1.10;;
1533;SDS011;760;48.822;9.304;2022-10-16T09:29:04;1.10;;;1.07;;
1533;SDS011;760;48.822;9.304;2022-10-16T09:31:30;0.90;;;0.90;;
1533;SDS011;760;48.822;9.304;2022-10-16T09:33:58;3.50;;;1.30;;
1533;SDS011;760;48.822;9.304;2022-10-16T09:36:38;1.63;;;1.20;;
1533;SDS011;760;48.822;9.304;2022-10-16T09:39:07;1.10;;;1.00;;
1533;SDS011;760;48.822;9.304;2022-10-16T09:41:42;1.00;;;0.90;;
1533;SDS011;760;48.822;9.304;2022-10-16T09:44:21;6.20;;;1.00;;
1533;SDS011;760;48.822;9.304;2022-10-16T09:47:14;0.97;;;0.97;;
1533;SDS011;760;48.822;9.304;2022-10-16T09:52:47;1.27;;;1.10;;
1533;SDS011;760;48.822;9.304;2022-10-16T09:55:14;1.07;;;1.00;;
1533;SDS011;760;48.822;9.304;2022-10-16T09:57:54;1.00;;;1.00;;
1533;SDS011;760;48.822;9.304;2022-10-16T10:00:26;0.83;;;0.83;;
1533;SDS011;760;48.822;9.304;2022-10-16T10:02:55;1.50;;;1.40;;
1533;SDS011;760;48.822;9.304;2022-10-16T10:05:29;0.80;;;0.80;;
1533;SDS011;760;48.822;9.304;2022-10-16T10:07:56;1.50;;;1.40;;
1533;SDS011;760;48.822;9.304;2022-10-16T10:10:27;1.53;;;1.00;;
1533;SDS011;760;48.822;9.304;2022-10-16T10:12:58;2.70;;;1.13;;
1533;SDS011;760;48.822;9.304;2022-10-16T10:15:24;0.93;;;0.90;;
1533;SDS011;760;48.822;9.304;2022-10-16T10:17:56;1.20;;;1.10;;
1533;SDS011;760;48.822;9.304;2022-10-16T10:20:46;1.20;;;1.20;;
1533;SDS011;760;48.822;9.304;2022-10-16T10:23:24;1.60;;;1.50;;
1533;SDS011;760;48.822;9.304;2022-10-16T10:25:56;1.40;;;1.40;;
1533;SDS011;760;48.822;9.304;2022-10-16T10:31:38;1.43;;;1.03;;
1533;SDS011;760;48.822;9.304;2022-10-16T10:39:55;2.67;;;1.20;;
1533;SDS011;760;48.822;9.304;2022-10-16T10:43:08;1.13;;;1.00;;
1533;SDS011;760;48.822;9.304;2022-10-16T10:45:52;2.67;;;1.20;;
1533;SDS011;760;48.822;9.304;2022-10-16T10:51:55;1.37;;;1.27;;
1533;SDS011;760;48.822;9.304;2022-10-16T10:57:58;1.30;;;1.20;;
1533;SDS011;760;48.822;9.304;2022-10-16T11:06:47;1.20;;;1.20;;
1533;SDS011;760;48.822;9.304;2022-10-16T11:09:28;1.63;;;1.20;;
1533;SDS011;760;48.822;9.304;2022-10-16T11:11:58;1.33;;;1.23;;
1533;SDS011;760;48.822;9.304;2022-10-16T11:15:03;0.90;;;0.90;;
1533;SDS011;760;48.822;9.304;2022-10-16T11:17:47;1.20;;;1.20;;
1533;SDS011;760;48.822;9.304;2022-10-16T11:20:23;1.43;;;1.17;;
1533;SDS011;760;48.822;9.304;2022-10-16T11:22:55;1.27;;;1.17;;
1533;SDS011;760;48.822;9.304;2022-10-16T11:25:43;1.20;;;1.20;;
1533;SDS011;760;48.822;9.304;2022-10-16T11:37:13;1.50;;;1.40;;
1533;SDS011;760;48.822;9.304;2022-10-16T11:39:44;0.80;;;0.80;;
1533;SDS011;760;48.822;9.304;2022-10-16T11:44:45;1.17;;;1.10;;
1533;SDS011;760;48.822;9.304;2022-10-16T11:50:38;1.30;;;1.20;;
1533;SDS011;760;48.822;9.304;2022-10-16T11:53:24;1.27;;;1.00;;
1533;SDS011;760;48.822;9.304;2022-10-16T11:55:54;0.80;;;0.80;;
1533;SDS011;760;48.822;9.304;2022-10-16T11:59:07;1.40;;;1.30;;
1533;SDS011;760;48.822;9.304;2022-10-16T12:01:40;1.20;;;1.10;;
1533;SDS011;760;48.822;9.304;2022-10-16T12:07:15;1.00;;;1.00;;
1533;SDS011;760;48.822;9.304;2022-10-16T12:09:45;0.87;;;0.83;;
1533;SDS011;760;48.822;9.304;2022-10-16T12:12:27;2.13;;;1.10;;
1533;SDS011;760;48.822;9.304;2022-10-16T12:15:32;1.47;;;1.17;;
1533;SDS011;760;48.822;9.304;2022-10-16T12:18:19;1.20;;;1.20;;
1533;SDS011;760;48.822;9.304;2022-10-16T12:20:55;1.87;;;1.10;;
1533;SDS011;760;48.822;9.304;2022-10-16T12:23:37;1.47;;;1.37;;
1533;SDS011;760;48.822;9.304;2022-10-16T12:26:11;1.07;;;1.03;;
1533;SDS011;760;48.822;9.304;2022-10-16T12:28:37;1.00;;;1.00;;
1533;SDS011;760;48.822;9.304;2022-10-16T12:31:07;4.57;;;1.57;;
1533;SDS011;760;48.822;9.304;2022-10-16T12:33:39;1.43;;;1.33;;
1533;SDS011;760;48.822;9.304;2022-10-16T12:36:26;1.87;;;1.17;;
1533;SDS011;760;48.822;9.304;2022-10-16T12:38:54;1.17;;;1.17;;
1533;SDS011;760;48.822;9.304;2022-10-16T12:41:33;1.60;;;1.50;;
1533;SDS011;760;48.822;9.304;2022-10-16T12:44:04;1.13;;;1.10;;
1533;SDS011;760;48.822;9.304;2022-10-16T12:46:46;1.17;;;1.17;;
1533;SDS011;760;48.822;9.304;2022-10-16T12:51:37;1.67;;;1.40;;
1533;SDS011;760;48.822;9.304;2022-10-16T13:10:36;1.20;;;1.20;;
1533;SDS011;760;48.822;9.304;2022-10-16T13:13:45;1.87;;;1.77;;
1533;SDS011;760;48.822;9.304;2022-10-16T13:19:16;2.60;;;1.40;;
1533;SDS011;760;48.822;9.304;2022-10-16T13:27:55;1.40;;;1.40;;
1533;SDS011;760;48.822;9.304;2022-10-16T13:30:50;1.40;;;1.30;;
1533;SDS011;760;48.822;9.304;2022-10-16T13:36:17;3.23;;;0.93;;
1533;SDS011;760;48.822;9.304;2022-10-16T13:38:48;1.63;;;1.13;;
1533;SDS011;760;48.822;9.304;2022-10-16T13:41:36;1.73;;;1.23;;
1533;SDS011;760;48.822;9.304;2022-10-16T13:44:02;1.30;;;1.20;;
1533;SDS011;760;48.822;9.304;2022-10-16T13:46:29;1.67;;;1.57;;
1533;SDS011;760;48.822;9.304;2022-10-16T13:49:33;1.23;;;1.10;;
1533;SDS011;760;48.822;9.304;2022-10-16T13:51:55;4.53;;;1.40;;
1533;SDS011;760;48.822;9.304;2022-10-16T13:54:22;1.80;;;0.97;;
1533;SDS011;760;48.822;9.304;2022-10-16T13:57:16;1.20;;;1.10;;
1533;SDS011;760;48.822;9.304;2022-10-16T13:59:42;1.43;;;1.33;;
1533;SDS011;760;48.822;9.304;2022-10-16T14:02:19;1.20;;;1.03;;
1533;SDS011;760;48.822;9.304;2022-10-16T14:04:55;1.07;;;1.07;;
1533;SDS011;760;48.822;9.304;2022-10-16T14:07:24;2.63;;;1.10;;
1533;SDS011;760;48.822;9.304;2022-10-16T14:09:55;1.03;;;1.03;;
1533;SDS011;760;48.822;9.304;2022-10-16T14:12:27;4.70;;;1.20;;
1533;SDS011;760;48.822;9.304;2022-10-16T14:14:53;1.23;;;1.20;;
1533;SDS011;760;48.822;9.304;2022-10-16T14:17:27;1.60;;;0.93;;
1533;SDS011;760;48.822;9.304;2022-10-16T14:19:57;1.50;;;1.40;;
1533;SDS011;760;48.822;9.304;2022-10-16T14:24:59;1.13;;;1.03;;
1533;SDS011;760;48.822;9.304;2022-10-16T14:27:31;2.17;;;1.93;;
1533;SDS011;760;48.822;9.304;2022-10-16T14:32:40;1.00;;;1.00;;
1533;SDS011;760;48.822;9.304;2022-10-16T14:35:29;1.40;;;1.30;;
1533;SDS011;760;48.822;9.304;2022-10-16T14:37:58;1.30;;;1.30;;
1533;SDS011;760;48.822;9.304;2022-10-16T14:40:27;1.60;;;1.50;;
1533;SDS011;760;48.822;9.304;2022-10-16T14:42:55;1.60;;;1.50;;
1533;SDS011;760;48.822;9.304;2022-10-16T14:45:24;2.60;;;1.70;;
1533;SDS011;760;48.822;9.304;2022-10-16T14:48:14;1.60;;;1.40;;
1533;SDS011;760;48.822;9.304;2022-10-16T14:50:44;1.30;;;1.30;;
1533;SDS011;760;48.822;9.304;2022-10-16T14:53:11;1.67;;;1.57;;
1533;SDS011;760;48.822;9.304;2022-10-16T14:55:39;2.23;;;1.50;;
1533;SDS011;760;48.822;9.304;2022-10-16T14:58:05;1.60;;;1.50;;
1533;SDS011;760;48.822;9.304;2022-10-16T15:00:44;2.87;;;1.80;;
1533;SDS011;760;48.822;9.304;2022-10-16T15:03:10;1.37;;;1.27;;
1533;SDS011;760;48.822;9.304;2022-10-16T15:05:36;1.10;;;1.03;;
1533;SDS011;760;48.822;9.304;2022-10-16T15:08:03;1.30;;;1.30;;
1533;SDS011;760;48.822;9.304;2022-10-16T15:10:33;2.17;;;1.87;;
1533;SDS011;760;48.822;9.304;2022-10-16T15:13:06;1.40;;;1.30;;
1533;SDS011;760;48.822;9.304;2022-10-16T15:15:41;4.33;;;1.60;;
1533;SDS011;760;48.822;9.304;2022-10-16T15:18:08;3.43;;;1.60;;
1533;SDS011;760;48.822;9.304;2022-10-16T15:20:36;1.90;;;1.27;;
1533;SDS011;760;48.822;9.304;2022-10-16T15:23:14;1.13;;;1.13;;
1533;SDS011;760;48.822;9.304;2022-10-16T15:25:43;1.27;;;1.10;;
1533;SDS011;760;48.822;9.304;2022-10-16T15:28:11;1.60;;;1.47;;
1533;SDS011;760;48.822;9.304;2022-10-16T15:30:37;1.77;;;1.67;;
1533;SDS011;760;48.822;9.304;2022-10-16T15:33:03;1.20;;;1.20;;
1533;SDS011;760;48.822;9.304;2022-10-16T15:35:34;1.50;;;1.40;;
1533;SDS011;760;48.822;9.304;2022-10-16T15:38:00;1.53;;;1.43;;
1533;SDS011;760;48.822;9.304;2022-10-16T15:40:26;1.43;;;1.33;;
1533;SDS011;760;48.822;9.304;2022-10-16T15:42:52;2.37;;;1.47;;
1533;SDS011;760;48.822;9.304;2022-10-16T15:45:17;1.43;;;1.27;;
1533;SDS011;760;48.822;9.304;2022-10-16T15:47:44;2.57;;;2.37;;
1533;SDS011;760;48.822;9.304;2022-10-16T15:50:12;2.40;;;1.30;;
1533;SDS011;760;48.822;9.304;2022-10-16T15:52:39;1.53;;;1.43;;
1533;SDS011;760;48.822;9.304;2022-10-16T15:55:10;9.70;;;1.80;;
1533;SDS011;760;48.822;9.304;2022-10-16T15:57:37;2.10;;;1.37;;
1533;SDS011;760;48.822;9.304;2022-10-16T16:00:11;1.37;;;1.37;;
1533;SDS011;760;48.822;9.304;2022-10-16T16:02:51;1.70;;;1.60;;
1533;SDS011;760;48.822;9.304;2022-10-16T16:05:20;2.27;;;2.17;;
1533;SDS011;760;48.822;9.304;2022-10-16T16:07:47;2.17;;;1.97;;
1533;SDS011;760;48.822;9.304;2022-10-16T16:10:14;2.27;;;2.07;;
1533;SDS011;760;48.822;9.304;2022-10-16T16:12:40;3.50;;;2.13;;
1533;SDS011;760;48.822;9.304;2022-10-16T16:15:26;2.60;;;2.40;;
1533;SDS011;760;48.822;9.304;2022-10-16T16:17:55;3.43;;;2.60;;
1533;SDS011;760;48.822;9.304;2022-10-16T16:20:43;3.43;;;2.57;;
1533;SDS011;760;48.822;9.304;2022-10-16T16:23:08;3.20;;;2.90;;
1533;SDS011;760;48.822;9.304;2022-10-16T16:25:34;3.30;;;3.00;;
1533;SDS011;760;48.822;9.304;2022-10-16T16:27:59;3.20;;;2.90;;
1533;SDS011;760;48.822;9.304;2022-10-16T16:30:25;3.13;;;2.80;;
1533;SDS011;760;48.822;9.304;2022-10-16T16:32:54;5.00;;;3.20;;
1533;SDS011;760;48.822;9.304;2022-10-16T16:35:21;4.87;;;3.30;;
1533;SDS011;760;48.822;9.304;2022-10-16T16:37:50;3.50;;;2.83;;
1533;SDS011;760;48.822;9.304;2022-10-16T16:40:19;3.37;;;2.40;;
1533;SDS011;760;48.822;9.304;2022-10-16T16:42:47;3.40;;;2.10;;
1533;SDS011;760;48.822;9.304;2022-10-16T16:45:14;2.30;;;2.10;;
1533;SDS011;760;48.822;9.304;2022-10-16T16:47:39;3.40;;;2.70;;
1533;SDS011;760;48.822;9.304;2022-10-16T16:50:05;2.23;;;2.13;;
1533;SDS011;760;48.822;9.304;2022-10-16T16:52:41;2.50;;;2.10;;
1533;SDS011;760;48.822;9.304;2022-10-16T16:55:26;2.30;;;2.10;;
1533;SDS011;760;48.822;9.304;2022-10-16T16:57:53;3.87;;;2.30;;
1533;SDS011;760;48.822;9.304;2022-10-16T17:00:22;1.97;;;1.80;;
1533;SDS011;760;48.822;9.304;2022-10-16T17:02:48;1.70;;;1.40;;
1533;SDS011;760;48.822;9.304;2022-10-16T17:05:15;1.87;;;1.77;;
1533;SDS011;760;48.822;9.304;2022-10-16T17:07:41;1.77;;;1.67;;
1533;SDS011;760;48.822;9.304;2022-10-16T17:10:09;1.80;;;1.67;;
1533;SDS011;760;48.822;9.304;2022-10-16T17:12:35;1.77;;;1.67;;
1533;SDS011;760;48.822;9.304;2022-10-16T17:15:09;2.03;;;1.60;;
1533;SDS011;760;48.822;9.304;2022-10-16T17:17:38;3.30;;;3.10;;
1533;SDS011;760;48.822;9.304;2022-10-16T17:20:06;4.03;;;3.67;;
1533;SDS011;760;48.822;9.304;2022-10-16T17:22:36;2.80;;;2.60;;
1533;SDS011;760;48.822;9.304;2022-10-16T17:25:02;2.50;;;2.30;;
1533;SDS011;760;48.822;9.304;2022-10-16T17:27:28;1.87;;;1.77;;
1533;SDS011;760;48.822;9.304;2022-10-16T17:29:55;3.40;;;1.90;;
1533;SDS011;760;48.822;9.304;2022-10-16T17:32:21;1.90;;;1.80;;
1533;SDS011;760;48.822;9.304;2022-10-16T17:34:47;2.13;;;1.97;;
1533;SDS011;760;48.822;9.304;2022-10-16T17:37:13;2.10;;;1.90;;
1533;SDS011;760;48.822;9.304;2022-10-16T17:39:38;2.30;;;2.10;;
1533;SDS011;760;48.822;9.304;2022-10-16T17:42:04;6.53;;;2.10;;
1533;SDS011;760;48.822;9.304;2022-10-16T17:44:30;3.57;;;1.70;;
1533;SDS011;760;48.822;9.304;2022-10-16T17:46:55;5.03;;;2.03;;
1533;SDS011;760;48.822;9.304;2022-10-16T17:49:21;1.70;;;1.60;;
1533;SDS011;760;48.822;9.304;2022-10-16T17:51:50;2.90;;;1.80;;
1533;SDS011;760;48.822;9.304;2022-10-16T17:54:17;2.47;;;2.37;;
1533;SDS011;760;48.822;9.304;2022-10-16T17:56:43;2.57;;;2.37;;
1533;SDS011;760;48.822;9.304;2022-10-16T17:59:10;2.30;;;1.87;;
1533;SDS011;760;48.822;9.304;2022-10-16T18:01:36;2.70;;;2.50;;
1533;SDS011;760;48.822;9.304;2022-10-16T18:04:11;2.33;;;2.13;;
1533;SDS011;760;48.822;9.304;2022-10-16T18:06:41;2.93;;;2.63;;
1533;SDS011;760;48.822;9.304;2022-10-16T18:09:08;3.43;;;2.53;;
1533;SDS011;760;48.822;9.304;2022-10-16T18:11:35;2.27;;;2.17;;
1533;SDS011;760;48.822;9.304;2022-10-16T18:14:01;1.80;;;1.50;;
1533;SDS011;760;48.822;9.304;2022-10-16T18:16:28;5.00;;;3.30;;
1533;SDS011;760;48.822;9.304;2022-10-16T18:18:55;4.20;;;3.90;;
1533;SDS011;760;48.822;9.304;2022-10-16T18:21:21;5.93;;;5.33;;
1533;SDS011;760;48.822;9.304;2022-10-16T18:23:48;4.13;;;3.73;;
1533;SDS011;760;48.822;9.304;2022-10-16T18:26:14;5.83;;;4.60;;
1533;SDS011;760;48.822;9.304;2022-10-16T18:28:40;5.10;;;4.60;;
1533;SDS011;760;48.822;9.304;2022-10-16T18:31:07;4.80;;;3.07;;
1533;SDS011;760;48.822;9.304;2022-10-16T18:33:35;3.30;;;3.07;;
1533;SDS011;760;48.822;9.304;2022-10-16T18:36:03;3.07;;;2.87;;
1533;SDS011;760;48.822;9.304;2022-10-16T18:38:31;4.53;;;2.40;;
1533;SDS011;760;48.822;9.304;2022-10-16T18:40:57;4.50;;;3.40;;
1533;SDS011;760;48.822;9.304;2022-10-16T18:43:25;2.80;;;2.60;;
1533;SDS011;760;48.822;9.304;2022-10-16T18:45:55;2.33;;;2.17;;
1533;SDS011;760;48.822;9.304;2022-10-16T18:48:23;3.27;;;2.10;;
1533;SDS011;760;48.822;9.304;2022-10-16T18:50:48;2.10;;;2.00;;
1533;SDS011;760;48.822;9.304;2022-10-16T18:53:14;2.03;;;1.87;;
1533;SDS011;760;48.822;9.304;2022-10-16T18:55:39;3.63;;;1.93;;
1533;SDS011;760;48.822;9.304;2022-10-16T18:58:05;2.10;;;2.00;;
1533;SDS011;760;48.822;9.304;2022-10-16T19:00:32;1.57;;;1.57;;
1533;SDS011;760;48.822;9.304;2022-10-16T19:02:57;1.70;;;1.60;;
1533;SDS011;760;48.822;9.304;2022-10-16T19:05:23;2.20;;;2.00;;
1533;SDS011;760;48.822;9.304;2022-10-16T19:07:49;1.97;;;1.80;;
1533;SDS011;760;48.822;9.304;2022-10-16T19:10:14;1.50;;;1.40;;
1533;SDS011;760;48.822;9.304;2022-10-16T19:12:40;2.10;;;2.00;;
1533;SDS011;760;48.822;9.304;2022-10-16T19:15:06;3.43;;;2.33;;
1533;SDS011;760;48.822;9.304;2022-10-16T19:17:32;2.00;;;1.90;;
1533;SDS011;760;48.822;9.304;2022-10-16T19:19:57;2.40;;;2.30;;
1533;SDS011;760;48.822;9.304;2022-10-16T19:22:23;6.50;;;2.17;;
1533;SDS011;760;48.822;9.304;2022-10-16T19:24:55;2.50;;;2.00;;
1533;SDS011;760;48.822;9.304;2022-10-16T19:27:21;3.47;;;2.30;;
1533;SDS011;760;48.822;9.304;2022-10-16T19:29:47;3.27;;;2.30;;
1533;SDS011;760;48.822;9.304;2022-10-16T19:32:12;3.00;;;2.37;;
1533;SDS011;760;48.822;9.304;2022-10-16T19:34:38;2.80;;;2.60;;
1533;SDS011;760;48.822;9.304;2022-10-16T19:37:04;4.00;;;2.50;;
1533;SDS011;760;48.822;9.304;2022-10-16T19:39:29;2.83;;;2.63;;
1533;SDS011;760;48.822;9.304;2022-10-16T19:41:55;5.73;;;2.50;;
1533;SDS011;760;48.822;9.304;2022-10-16T19:44:21;2.63;;;2.43;;
1533;SDS011;760;48.822;9.304;2022-10-16T19:46:46;4.30;;;2.23;;
1533;SDS011;760;48.822;9.304;2022-10-16T19:49:14;4.97;;;2.30;;
1533;SDS011;760;48.822;9.304;2022-10-16T19:51:45;2.80;;;2.60;;
1533;SDS011;760;48.822;9.304;2022-10-16T19:54:13;6.50;;;2.60;;
1533;SDS011;760;48.822;9.304;2022-10-16T19:56:39;3.20;;;2.93;;
1533;SDS011;760;48.822;9.304;2022-10-16T19:59:06;2.40;;;2.30;;
1533;SDS011;760;48.822;9.304;2022-10-16T20:01:33;2.80;;;2.50;;
1533;SDS011;760;48.822;9.304;2022-10-16T20:03:59;2.03;;;1.93;;
1533;SDS011;760;48.822;9.304;2022-10-16T20:06:25;3.53;;;2.10;;
1533;SDS011;760;48.822;9.304;2022-10-16T20:08:51;2.90;;;2.70;;
1533;SDS011;760;48.822;9.304;2022-10-16T20:11:22;2.43;;;1.90;;
1533;SDS011;760;48.822;9.304;2022-10-16T20:13:49;2.40;;;2.23;;
1533;SDS011;760;48.822;9.304;2022-10-16T20:16:15;2.70;;;2.50;;
1533;SDS011;760;48.822;9.304;2022-10-16T20:18:43;2.50;;;2.30;;
1533;SDS011;760;48.822;9.304;2022-10-16T20:21:09;4.53;;;2.53;;
1533;SDS011;760;48.822;9.304;2022-10-16T20:23:40;2.83;;;2.20;;
1533;SDS011;760;48.822;9.304;2022-10-16T20:26:06;4.50;;;4.20;;
1533;SDS011;760;48.822;9.304;2022-10-16T20:28:35;3.50;;;3.20;;
1533;SDS011;760;48.822;9.304;2022-10-16T20:31:09;3.00;;;2.57;;
1533;SDS011;760;48.822;9.304;2022-10-16T20:33:40;2.00;;;1.90;;
1533;SDS011;760;48.822;9.304;2022-10-16T20:36:09;2.50;;;2.33;;
1533;SDS011;760;48.822;9.304;2022-10-16T20:38:35;2.50;;;2.30;;
1533;SDS011;760;48.822;9.304;2022-10-16T20:41:02;3.57;;;2.50;;
1533;SDS011;760;48.822;9.304;2022-10-16T20:43:28;2.33;;;2.23;;
1533;SDS011;760;48.822;9.304;2022-10-16T20:45:57;3.27;;;2.73;;
1533;SDS011;760;48.822;9.304;2022-10-16T20:48:28;2.70;;;2.10;;
1533;SDS011;760;48.822;9.304;2022-10-16T20:50:54;3.70;;;3.00;;
1533;SDS011;760;48.822;9.304;2022-10-16T20:53:20;4.73;;;4.27;;
1533;SDS011;760;48.822;9.304;2022-10-16T20:55:45;2.80;;;2.60;;
1533;SDS011;760;48.822;9.304;2022-10-16T20:58:11;3.23;;;2.93;;
1533;SDS011;760;48.822;9.304;2022-10-16T21:00:37;6.20;;;2.97;;
1533;SDS011;760;48.822;9.304;2022-10-16T21:03:03;2.47;;;2.17;;
1533;SDS011;760;48.822;9.304;2022-10-16T21:05:29;2.87;;;2.67;;
1533;SDS011;760;48.822;9.304;2022-10-16T21:07:56;3.30;;;3.00;;
1533;SDS011;760;48.822;9.304;2022-10-16T21:10:22;2.37;;;2.20;;
1533;SDS011;760;48.822;9.304;2022-10-16T21:12:51;2.30;;;1.87;;
1533;SDS011;760;48.822;9.304;2022-10-16T21:15:19;2.70;;;2.53;;
1533;SDS011;760;48.822;9.304;2022-10-16T21:17:44;3.80;;;2.27;;
1533;SDS011;760;48.822;9.304;2022-10-16T21:20:10;3.00;;;2.77;;
1533;SDS011;760;48.822;9.304;2022-10-16T21:22:37;5.13;;;3.17;;
1533;SDS011;760;48.822;9.304;2022-10-16T21:25:03;7.60;;;2.87;;
1533;SDS011;760;48.822;9.304;2022-10-16T21:27:29;2.70;;;2.50;;